Appleton, Arkansas
Current Conditions -  °F | °C
As of 8:53 AM on Thursday 18 Dec 2014 (Local Time) from KRUE Reporting Station
Overcast Overcast  
Wind Chill:   Ceiling: 1000
Heat Index:   Visibility: 9mi
Dew Point:   Wind: 3mph
Humidity: 89%   Direction: 80°E
Pressure: 30.24"   Gusts: NA
Location:  35.2384°N, 92.9429°W
Report Text: KRUE 181453Z AUTO 08003KT 9SM OVC010 03/01 A3024 RMK AO2 SLP239 T00280011 51008
Loading
Personal Weather Stations






























Interactive Weather Map New forecast layout! Learn more

10-Day Weather Forecast

Advertisements
Track Severe Weather on mobile